createdAt,value
2018-04-18T00:00:25.443Z,85.20
2018-04-18T00:02:53.693Z,86.30
2018-04-18T00:05:22.007Z,85.50
2018-04-18T00:07:50.371Z,85.90
2018-04-18T00:10:19.127Z,86.20
2018-04-18T00:12:47.377Z,86.50
2018-04-18T00:15:16.447Z,86.90
2018-04-18T00:17:44.735Z,86.90
2018-04-18T00:20:12.997Z,86.90
2018-04-18T00:22:41.298Z,86.80
2018-04-18T00:25:10.471Z,87.40
2018-04-18T00:27:38.793Z,87.30
2018-04-18T00:30:07.186Z,87.40
2018-04-18T00:32:35.535Z,88.00
2018-04-18T00:35:04.654Z,88.00
2018-04-18T00:37:32.974Z,88.30
2018-04-18T00:40:02.102Z,88.40
2018-04-18T00:42:31.215Z,88.60
2018-04-18T00:44:59.544Z,88.50
2018-04-18T00:47:29.524Z,89.10
2018-04-18T00:49:57.865Z,89.00
2018-04-18T00:52:26.994Z,88.20
2018-04-18T00:54:55.876Z,88.00
2018-04-18T00:57:24.235Z,88.20
2018-04-18T00:59:53.317Z,88.20
2018-04-18T01:02:21.638Z,88.20
2018-04-18T01:04:49.962Z,88.30
2018-04-18T01:07:19.768Z,88.50
2018-04-18T01:09:48.114Z,88.40
2018-04-18T01:12:16.975Z,88.70
2018-04-18T01:14:46.545Z,88.90
2018-04-18T01:17:14.860Z,88.80
2018-04-18T01:19:43.161Z,88.90
2018-04-18T01:22:11.441Z,89.20
2018-04-18T01:24:39.755Z,89.20
2018-04-18T01:27:08.030Z,89.60
2018-04-18T01:29:36.363Z,89.50
2018-04-18T01:32:04.645Z,89.40
2018-04-18T01:34:33.966Z,89.70
2018-04-18T01:37:02.357Z,90.20
2018-04-18T01:39:30.637Z,90.20
2018-04-18T01:41:59.732Z,90.20
2018-04-18T01:44:28.026Z,90.10
2018-04-18T01:46:57.105Z,90.30
2018-04-18T01:49:31.383Z,90.30
2018-04-18T01:51:59.662Z,90.40
2018-04-18T01:54:27.939Z,90.50
2018-04-18T01:56:56.247Z,90.60
2018-04-18T01:59:25.727Z,90.60
2018-04-18T02:01:53.989Z,90.70
2018-04-18T02:04:22.312Z,90.90
2018-04-18T02:06:50.782Z,90.90
2018-04-18T02:09:19.065Z,91.50
2018-04-18T02:11:48.874Z,91.30
2018-04-18T02:14:17.114Z,91.30
2018-04-18T02:16:45.431Z,91.30
2018-04-18T02:19:13.768Z,91.40
2018-04-18T02:21:42.045Z,91.50
2018-04-18T02:24:10.321Z,91.60
2018-04-18T02:26:38.613Z,91.40
2018-04-18T02:29:06.882Z,91.50
2018-04-18T02:31:35.197Z,91.30
2018-04-18T02:34:03.445Z,91.80
2018-04-18T02:36:31.717Z,91.20
2018-04-18T02:38:59.994Z,91.30
2018-04-18T02:41:29.045Z,91.40
2018-04-18T02:43:58.075Z,91.50
2018-04-18T02:46:26.408Z,91.40
2018-04-18T02:48:54.628Z,91.70
2018-04-18T02:51:22.900Z,91.70
2018-04-18T02:53:51.174Z,91.60
2018-04-18T02:56:19.479Z,91.60
2018-04-18T02:58:47.754Z,91.70
2018-04-18T03:01:16.011Z,91.60
2018-04-18T03:03:44.275Z,91.80
2018-04-18T03:06:12.565Z,91.90
2018-04-18T03:08:41.050Z,91.80
2018-04-18T03:11:09.347Z,91.90
2018-04-18T03:13:38.416Z,92.30
2018-04-18T03:16:06.666Z,92.00
2018-04-18T03:18:34.944Z,92.20
2018-04-18T03:21:03.212Z,92.10
2018-04-18T03:23:31.518Z,92.10
2018-04-18T03:25:59.793Z,92.00
2018-04-18T03:28:28.070Z,92.10
2018-04-18T03:30:56.392Z,92.00
2018-04-18T03:33:25.443Z,92.30
2018-04-18T03:35:53.767Z,92.30
2018-04-18T03:38:22.034Z,92.30
2018-04-18T03:40:52.016Z,92.20
2018-04-18T03:43:21.495Z,92.20
2018-04-18T03:45:49.799Z,92.40
2018-04-18T03:48:18.069Z,92.50
2018-04-18T03:50:46.325Z,92.50
2018-04-18T03:53:14.617Z,92.60
2018-04-18T03:55:44.186Z,92.40
2018-04-18T03:58:13.957Z,92.60
2018-04-18T04:00:42.197Z,92.60
2018-04-18T04:03:11.623Z,92.80
2018-04-18T04:05:39.914Z,92.70
2018-04-18T04:08:08.191Z,92.70
2018-04-18T04:10:36.458Z,92.90
2018-04-18T04:13:04.755Z,92.90
2018-04-18T04:15:33.820Z,92.90
2018-04-18T04:18:14.082Z,92.90
2018-04-18T04:20:54.330Z,92.90
2018-04-18T04:23:34.562Z,93.00
2018-04-18T04:26:02.844Z,93.00
2018-04-18T04:28:31.121Z,93.10
2018-04-18T04:30:59.377Z,93.10
2018-04-18T04:33:27.670Z,93.10
2018-04-18T04:35:55.904Z,93.00
2018-04-18T04:38:24.970Z,93.00
2018-04-18T04:40:53.268Z,93.00
2018-04-18T04:43:23.236Z,92.90
2018-04-18T04:45:51.516Z,92.90
2018-04-18T04:48:19.829Z,92.80
2018-04-18T04:50:48.101Z,92.70
2018-04-18T04:53:16.377Z,92.80
2018-04-18T04:55:44.696Z,92.70
2018-04-18T04:58:14.672Z,92.60
2018-04-18T05:00:42.947Z,92.50
2018-04-18T05:03:11.227Z,92.40
2018-04-18T05:05:39.519Z,92.20
2018-04-18T05:08:08.554Z,92.00
2018-04-18T05:10:36.838Z,92.00
2018-04-18T05:13:05.085Z,91.90
2018-04-18T05:15:33.370Z,91.80
2018-04-18T05:18:02.195Z,91.70
2018-04-18T05:20:31.618Z,91.50
2018-04-18T05:22:59.889Z,91.40
2018-04-18T05:25:28.147Z,91.30
2018-04-18T05:27:56.460Z,91.10
2018-04-18T05:30:25.520Z,90.80
2018-04-18T05:32:53.897Z,90.80
2018-04-18T05:35:22.195Z,90.30
2018-04-18T05:37:50.499Z,88.00
2018-04-18T05:40:18.760Z,84.40
2018-04-18T05:42:47.797Z,76.80
2018-04-18T05:45:17.297Z,76.70
2018-04-18T05:47:45.517Z,73.50
2018-04-18T05:50:14.754Z,71.20
2018-04-18T05:52:43.895Z,67.50
2018-04-18T05:55:12.199Z,67.50
2018-04-18T05:57:41.285Z,66.40
2018-04-18T06:00:09.525Z,66.40
2018-04-18T06:02:38.763Z,66.70
2018-04-18T06:05:08.553Z,65.90
2018-04-18T06:07:36.838Z,65.90
2018-04-18T06:10:05.090Z,64.90
2018-04-18T06:12:33.387Z,62.30
2018-04-18T06:15:01.686Z,60.30
2018-04-18T06:17:31.172Z,56.20
2018-04-18T06:20:00.766Z,54.70
2018-04-18T06:22:29.054Z,54.60
2018-04-18T06:24:57.339Z,52.60
2018-04-18T06:27:27.630Z,48.40
2018-04-18T06:29:55.943Z,48.20
2018-04-18T06:32:24.210Z,45.80
2018-04-18T06:34:52.480Z,43.90
2018-04-18T06:37:20.775Z,42.10
2018-04-18T06:39:49.809Z,39.60
2018-04-18T06:42:18.112Z,39.60
2018-04-18T06:44:46.433Z,39.70
2018-04-18T06:47:15.442Z,38.80
2018-04-18T06:49:43.718Z,38.80
2018-04-18T06:52:12.004Z,38.40
2018-04-18T06:54:40.329Z,39.00
2018-04-18T06:57:09.461Z,38.00
2018-04-18T06:59:37.720Z,37.60
2018-04-18T07:02:06.778Z,37.90
2018-04-18T07:04:35.047Z,37.90
2018-04-18T07:07:03.452Z,38.40
2018-04-18T07:09:31.830Z,37.60
2018-04-18T07:12:00.090Z,37.30
2018-04-18T07:14:28.331Z,37.20
2018-04-18T07:16:56.659Z,36.80
2018-04-18T07:19:24.938Z,36.10
2018-04-18T07:21:53.286Z,38.30
2018-04-18T07:24:21.614Z,38.00
2018-04-18T07:26:50.637Z,39.00
2018-04-18T07:29:19.219Z,39.00
2018-04-18T07:31:47.496Z,40.10
2018-04-18T07:34:15.794Z,40.90
2018-04-18T07:36:44.107Z,42.80
2018-04-18T07:39:12.384Z,43.90
2018-04-18T07:41:40.632Z,44.70
2018-04-18T07:44:08.895Z,46.20
2018-04-18T07:46:37.575Z,46.40
2018-04-18T07:49:06.615Z,50.80
2018-04-18T07:51:34.992Z,50.80
2018-04-18T07:54:03.352Z,54.10
2018-04-18T07:56:31.692Z,54.90
2018-04-18T07:59:00.033Z,56.70
2018-04-18T08:01:29.082Z,58.00
2018-04-18T08:03:57.355Z,57.90
2018-04-18T08:06:25.636Z,58.60
2018-04-18T08:08:55.188Z,59.40
2018-04-18T08:11:23.460Z,61.20
2018-04-18T08:13:53.638Z,62.00
2018-04-18T08:16:21.925Z,62.20
2018-04-18T08:18:50.175Z,61.00
2018-04-18T08:21:18.456Z,62.30
2018-04-18T08:23:46.744Z,63.30
2018-04-18T08:26:14.992Z,63.80
2018-04-18T08:28:43.321Z,64.80
2018-04-18T08:31:11.626Z,64.10
2018-04-18T08:33:40.659Z,61.30
2018-04-18T08:36:08.924Z,61.30
2018-04-18T08:38:38.999Z,63.50
2018-04-18T08:41:07.429Z,63.50
2018-04-18T08:43:35.716Z,59.60
2018-04-18T08:46:03.977Z,58.00
2018-04-18T08:48:33.407Z,57.30
2018-04-18T08:51:01.667Z,59.70
2018-04-18T08:53:29.969Z,59.40
2018-04-18T08:55:58.260Z,57.80
2018-04-18T08:58:27.317Z,58.00
2018-04-18T09:00:55.707Z,58.00
2018-04-18T09:03:23.970Z,58.90
2018-04-18T09:05:52.259Z,57.20
2018-04-18T09:08:20.607Z,60.60
2018-04-18T09:10:49.670Z,59.30
2018-04-18T09:13:18.731Z,59.40
2018-04-18T09:15:47.158Z,58.70
2018-04-18T09:18:15.420Z,61.00
2018-04-18T09:20:44.460Z,60.20
2018-04-18T09:23:12.741Z,60.20
2018-04-18T09:25:41.035Z,62.00
2018-04-18T09:28:09.315Z,62.20
2018-04-18T09:30:37.660Z,61.60
2018-04-18T09:33:05.945Z,56.90
2018-04-18T09:35:35.429Z,57.90
2018-04-18T09:38:03.697Z,56.20
2018-04-18T09:40:31.983Z,56.10
2018-04-18T09:43:00.262Z,58.80
2018-04-18T09:45:28.541Z,56.50
2018-04-18T09:47:57.939Z,58.70
2018-04-18T09:50:26.278Z,58.60
2018-04-18T09:52:55.323Z,58.80
2018-04-18T09:55:23.736Z,58.40
2018-04-18T09:57:51.971Z,56.40
2018-04-18T10:00:20.264Z,55.20
2018-04-18T10:02:54.214Z,58.20
2018-04-18T10:05:23.238Z,56.30
2018-04-18T10:07:51.520Z,56.30
2018-04-18T10:10:20.988Z,57.00
2018-04-18T10:12:49.233Z,58.20
2018-04-18T10:15:17.486Z,57.30
2018-04-18T10:17:45.788Z,55.20
2018-04-18T10:20:14.038Z,57.00
2018-04-18T10:22:42.321Z,54.80
2018-04-18T10:25:10.611Z,57.20
2018-04-18T10:27:38.888Z,56.70
2018-04-18T10:30:07.171Z,57.30
2018-04-18T10:32:35.444Z,57.00
2018-04-18T10:35:04.511Z,54.10
2018-04-18T10:37:32.787Z,56.40
2018-04-18T10:40:01.194Z,56.70
2018-04-18T10:42:29.463Z,57.10
2018-04-18T10:44:57.828Z,56.80
2018-04-18T10:47:26.161Z,56.90
2018-04-18T10:49:54.973Z,54.80
2018-04-18T10:52:23.276Z,53.30
2018-04-18T10:54:51.541Z,55.30
2018-04-18T10:57:19.830Z,55.40
2018-04-18T10:59:48.075Z,56.70
2018-04-18T11:02:16.397Z,54.40
2018-04-18T11:04:44.744Z,54.10
2018-04-18T11:07:14.019Z,55.20
2018-04-18T11:09:42.289Z,55.20
2018-04-18T11:12:10.609Z,54.60
2018-04-18T11:14:38.872Z,52.90
2018-04-18T11:17:07.151Z,55.20
2018-04-18T11:19:35.467Z,57.20
2018-04-18T11:22:03.828Z,55.20
2018-04-18T11:24:32.077Z,54.30
2018-04-18T11:27:00.439Z,56.20
2018-04-18T11:29:28.862Z,54.50
2018-04-18T11:31:57.138Z,55.30
2018-04-18T11:34:25.422Z,56.70
2018-04-18T11:36:53.708Z,55.90
2018-04-18T11:39:22.768Z,54.50
2018-04-18T11:41:51.047Z,54.50
2018-04-18T11:44:19.310Z,55.00
2018-04-18T11:46:47.590Z,53.60
2018-04-18T11:49:15.877Z,54.50
2018-04-18T11:51:44.137Z,54.90
2018-04-18T11:54:12.769Z,55.00
2018-04-18T11:56:41.036Z,54.60
2018-04-18T11:59:09.306Z,54.00
2018-04-18T12:01:37.574Z,54.20
2018-04-18T12:04:06.318Z,52.90
2018-04-18T12:06:35.032Z,56.70
2018-04-18T12:09:03.296Z,52.50
2018-04-18T12:11:34.454Z,52.60
2018-04-18T12:14:02.663Z,53.80
2018-04-18T12:16:33.488Z,53.50
2018-04-18T12:19:01.799Z,53.50
2018-04-18T12:21:30.836Z,52.20
2018-04-18T12:23:59.095Z,52.20
2018-04-18T12:26:27.387Z,53.00
2018-04-18T12:28:55.696Z,53.80
2018-04-18T12:31:25.135Z,50.70
2018-04-18T12:33:54.149Z,51.00
2018-04-18T12:36:22.436Z,51.10
2018-04-18T12:38:50.708Z,51.20
2018-04-18T12:41:18.974Z,51.70
2018-04-18T12:43:47.255Z,49.50
2018-04-18T12:46:15.536Z,50.40
2018-04-18T12:48:45.075Z,51.30
2018-04-18T12:51:13.373Z,51.20
2018-04-18T12:53:42.417Z,53.40
2018-04-18T12:56:10.684Z,53.50
2018-04-18T12:58:38.965Z,52.10
2018-04-18T13:01:07.482Z,51.70
2018-04-18T13:03:36.566Z,52.70
2018-04-18T13:06:04.806Z,52.60
2018-04-18T13:08:34.211Z,52.60
2018-04-18T13:11:05.302Z,50.40
2018-04-18T13:13:33.665Z,52.50
2018-04-18T13:16:01.956Z,52.70
2018-04-18T13:18:30.375Z,53.50
2018-04-18T13:20:58.679Z,53.20
2018-04-18T13:23:26.955Z,50.40
2018-04-18T13:25:55.212Z,53.20
2018-04-18T13:28:23.495Z,53.10
2018-04-18T13:30:51.941Z,53.50
2018-04-18T13:33:20.972Z,52.10
2018-04-18T13:35:49.234Z,52.10
2018-04-18T13:38:17.556Z,51.10
2018-04-18T13:40:46.577Z,50.50
2018-04-18T13:43:14.996Z,51.00
2018-04-18T13:45:44.149Z,51.20
2018-04-18T13:48:13.310Z,50.00
2018-04-18T13:50:41.651Z,50.00
2018-04-18T13:53:09.922Z,52.20
2018-04-18T13:55:38.213Z,52.00
2018-04-18T13:58:06.451Z,51.40
2018-04-18T14:00:34.731Z,50.80
2018-04-18T14:03:03.004Z,51.30
2018-04-18T14:05:32.057Z,50.50
2018-04-18T14:08:00.450Z,50.50
2018-04-18T14:10:28.720Z,52.20
2018-04-18T14:12:56.984Z,49.50
2018-04-18T14:15:25.285Z,49.90
2018-04-18T14:17:53.550Z,48.80
2018-04-18T14:20:21.792Z,50.50
2018-04-18T14:22:50.065Z,51.20
2018-04-18T14:25:19.159Z,50.30
2018-04-18T14:27:47.476Z,52.30
2018-04-18T14:30:15.730Z,50.70
2018-04-18T14:32:43.987Z,50.30
2018-04-18T14:35:12.264Z,51.50
2018-04-18T14:37:40.508Z,50.50
2018-04-18T14:40:09.569Z,50.30
2018-04-18T14:42:37.821Z,50.30
2018-04-18T14:45:06.083Z,50.60
2018-04-18T14:47:35.186Z,51.90
2018-04-18T14:50:03.426Z,49.70
2018-04-18T14:52:31.737Z,51.10
2018-04-18T14:55:00.036Z,51.30
2018-04-18T14:57:28.318Z,51.60
2018-04-18T14:59:56.605Z,51.20
2018-04-18T15:02:25.690Z,51.40
2018-04-18T15:04:54.032Z,51.40
2018-04-18T15:07:22.352Z,51.60
2018-04-18T15:09:51.784Z,53.10
2018-04-18T15:12:20.803Z,51.50
2018-04-18T15:14:49.049Z,51.50
2018-04-18T15:17:17.358Z,52.00
2018-04-18T15:19:45.641Z,52.30
2018-04-18T15:22:13.931Z,52.00
2018-04-18T15:24:42.168Z,51.50
2018-04-18T15:27:11.219Z,51.90
2018-04-18T15:29:39.470Z,51.80
2018-04-18T15:32:07.782Z,52.10
2018-04-18T15:34:36.048Z,52.80
2018-04-18T15:37:04.443Z,54.00
2018-04-18T15:39:32.725Z,52.30
2018-04-18T15:42:01.773Z,52.30
2018-04-18T15:44:30.053Z,52.20
2018-04-18T15:46:58.348Z,51.90
2018-04-18T15:49:27.417Z,52.40
2018-04-18T15:51:55.712Z,51.70
2018-04-18T15:54:24.005Z,51.50
2018-04-18T15:56:52.242Z,51.80
2018-04-18T15:59:20.510Z,52.30
2018-04-18T16:01:48.813Z,52.40
2018-04-18T16:04:17.069Z,53.20
2018-04-18T16:06:45.363Z,52.10
2018-04-18T16:09:13.637Z,52.80
2018-04-18T16:11:41.919Z,52.70
2018-04-18T16:14:10.217Z,52.40
2018-04-18T16:16:38.501Z,53.20
2018-04-18T16:19:07.553Z,53.20
2018-04-18T16:21:35.856Z,53.20
2018-04-18T16:24:04.143Z,53.50
2018-04-18T16:26:33.154Z,53.20
2018-04-18T16:29:01.478Z,52.90
2018-04-18T16:31:30.542Z,53.10
2018-04-18T16:33:58.812Z,52.90
2018-04-18T16:36:27.118Z,53.70
2018-04-18T16:38:55.368Z,54.00
2018-04-18T16:41:23.632Z,53.40
2018-04-18T16:43:51.906Z,53.10
2018-04-18T16:46:20.191Z,53.40
2018-04-18T16:48:48.471Z,53.90
2018-04-18T16:51:16.742Z,53.40
2018-04-18T16:53:45.062Z,54.10
2018-04-18T16:56:13.342Z,54.60
2018-04-18T16:58:41.621Z,54.30
2018-04-18T17:01:09.911Z,55.00
2018-04-18T17:03:38.187Z,54.90
2018-04-18T17:06:07.216Z,55.20
2018-04-18T17:08:35.541Z,55.20
2018-04-18T17:11:03.845Z,55.20
2018-04-18T17:13:32.168Z,55.20
2018-04-18T17:16:00.419Z,54.80
2018-04-18T17:18:28.705Z,54.60
2018-04-18T17:20:57.025Z,54.80
2018-04-18T17:23:25.264Z,54.90
2018-04-18T17:25:53.572Z,55.20
2018-04-18T17:28:21.840Z,55.60
2018-04-18T17:30:50.091Z,55.80
2018-04-18T17:33:18.409Z,56.10
2018-04-18T17:35:46.651Z,56.10
2018-04-18T17:38:14.928Z,56.30
2018-04-18T17:40:43.194Z,56.90
2018-04-18T17:43:11.541Z,57.10
2018-04-18T17:45:40.701Z,57.50
2018-04-18T17:48:08.989Z,57.50
2018-04-18T17:50:37.339Z,57.30
2018-04-18T17:53:05.655Z,57.30
2018-04-18T17:55:34.704Z,57.30
2018-04-18T17:58:03.007Z,57.20
2018-04-18T18:00:31.277Z,57.60
2018-04-18T18:02:59.662Z,57.60
2018-04-18T18:05:27.896Z,58.00
2018-04-18T18:07:56.202Z,58.20
2018-04-18T18:10:24.496Z,58.60
2018-04-18T18:12:52.761Z,58.80
2018-04-18T18:15:21.080Z,59.00
2018-04-18T18:17:50.605Z,60.20
2018-04-18T18:20:18.898Z,60.20
2018-04-18T18:22:47.185Z,60.40
2018-04-18T18:25:15.488Z,60.80
2018-04-18T18:27:43.789Z,61.50
2018-04-18T18:30:12.904Z,62.10
2018-04-18T18:32:41.163Z,62.10
2018-04-18T18:35:10.224Z,63.00
2018-04-18T18:37:38.492Z,63.00
2018-04-18T18:40:06.885Z,63.40
2018-04-18T18:42:35.223Z,63.50
2018-04-18T18:45:03.570Z,64.00
2018-04-18T18:47:31.839Z,64.80
2018-04-18T18:50:01.111Z,65.50
2018-04-18T18:52:29.916Z,65.50
2018-04-18T18:54:58.940Z,66.20
2018-04-18T18:57:27.232Z,66.00
2018-04-18T18:59:55.646Z,66.60
2018-04-18T19:02:23.995Z,66.70
2018-04-18T19:04:52.317Z,66.70
2018-04-18T19:07:21.353Z,67.40
2018-04-18T19:09:49.621Z,67.50
2018-04-18T19:12:17.936Z,68.00
2018-04-18T19:14:46.233Z,69.20
2018-04-18T19:17:14.522Z,68.70
2018-04-18T19:19:42.843Z,69.20
2018-04-18T19:22:11.126Z,69.70
2018-04-18T19:24:39.454Z,70.10
2018-04-18T19:27:07.806Z,69.90
2018-04-18T19:29:36.104Z,69.90
2018-04-18T19:32:05.213Z,70.10
2018-04-18T19:34:34.281Z,70.40
2018-04-18T19:37:02.611Z,70.40
2018-04-18T19:39:31.176Z,70.50
2018-04-18T19:41:59.555Z,70.60
2018-04-18T19:44:27.867Z,70.90
2018-04-18T19:46:56.192Z,71.40
2018-04-18T19:49:25.263Z,71.60
2018-04-18T19:51:53.615Z,71.60
2018-04-18T19:54:21.943Z,72.20
2018-04-18T19:56:51.022Z,72.50
2018-04-18T19:59:19.415Z,72.50
2018-04-18T20:01:48.440Z,72.60
2018-04-18T20:04:16.800Z,72.60
2018-04-18T20:06:45.143Z,72.90
2018-04-18T20:09:13.421Z,73.10
2018-04-18T20:11:41.754Z,73.70
2018-04-18T20:14:10.008Z,74.00
2018-04-18T20:16:38.267Z,74.10
2018-04-18T20:19:07.331Z,74.90
2018-04-18T20:21:35.600Z,75.00
2018-04-18T20:24:03.932Z,75.20
2018-04-18T20:26:32.609Z,75.60
2018-04-18T20:29:01.691Z,75.60
2018-04-18T20:31:30.732Z,75.50
2018-04-18T20:33:59.009Z,75.50
2018-04-18T20:36:27.314Z,75.80
2018-04-18T20:38:55.605Z,76.30
2018-04-18T20:41:23.902Z,76.30
2018-04-18T20:43:52.231Z,76.40
2018-04-18T20:46:20.560Z,76.60
2018-04-18T20:48:49.599Z,76.90
2018-04-18T20:51:17.912Z,77.60
2018-04-18T20:53:46.197Z,76.40
2018-04-18T20:56:15.237Z,76.80
2018-04-18T20:58:43.551Z,76.80
2018-04-18T21:01:11.951Z,77.10
2018-04-18T21:03:41.014Z,77.80
2018-04-18T21:06:09.297Z,77.80
2018-04-18T21:08:37.552Z,78.10
2018-04-18T21:11:05.843Z,78.00
2018-04-18T21:13:34.244Z,78.30
2018-04-18T21:16:02.519Z,78.60
2018-04-18T21:18:30.876Z,78.70
2018-04-18T21:20:59.183Z,78.80
2018-04-18T21:23:28.994Z,80.20
2018-04-18T21:25:57.244Z,79.40
2018-04-18T21:28:25.619Z,79.50
2018-04-18T21:30:53.916Z,79.60
2018-04-18T21:33:22.959Z,80.40
2018-04-18T21:35:51.781Z,80.30
2018-04-18T21:38:20.085Z,80.60
2018-04-18T21:40:49.129Z,80.90
2018-04-18T21:43:17.401Z,80.80
2018-04-18T21:45:45.675Z,80.90
2018-04-18T21:48:13.950Z,81.20
2018-04-18T21:50:42.218Z,81.30
2018-04-18T21:53:10.504Z,81.30
2018-04-18T21:55:38.752Z,81.50
2018-04-18T21:58:07.021Z,81.60
2018-04-18T22:00:35.351Z,81.90
2018-04-18T22:03:03.629Z,82.10
2018-04-18T22:05:32.610Z,82.90
2018-04-18T22:08:00.897Z,82.50
2018-04-18T22:10:29.186Z,82.60
2018-04-18T22:12:57.645Z,82.90
2018-04-18T22:15:25.908Z,83.20
2018-04-18T22:17:54.210Z,83.40
2018-04-18T22:20:22.460Z,83.50
2018-04-18T22:22:50.753Z,83.90
2018-04-18T22:25:19.030Z,84.20
2018-04-18T22:27:47.301Z,84.60
2018-04-18T22:30:15.577Z,84.80
2018-04-18T22:32:43.979Z,85.40
2018-04-18T22:35:12.242Z,85.80
2018-04-18T22:37:40.491Z,85.90
2018-04-18T22:40:10.049Z,86.40
2018-04-18T22:42:38.342Z,87.60
2018-04-18T22:45:06.623Z,87.20
2018-04-18T22:47:35.605Z,88.10
2018-04-18T22:50:03.918Z,88.00
2018-04-18T22:52:32.185Z,88.20
2018-04-18T22:55:00.470Z,88.70
2018-04-18T22:57:28.716Z,89.20
2018-04-18T22:59:57.025Z,89.40
2018-04-18T23:02:25.295Z,89.80
2018-04-18T23:04:53.576Z,89.80
2018-04-18T23:07:21.847Z,90.00
2018-04-18T23:09:50.874Z,90.20
2018-04-18T23:12:19.247Z,90.20
2018-04-18T23:14:49.071Z,90.40
2018-04-18T23:17:17.310Z,90.40
2018-04-18T23:19:45.583Z,90.50
2018-04-18T23:22:13.911Z,90.70
2018-04-18T23:24:42.135Z,90.80
2018-04-18T23:27:11.928Z,91.00
2018-04-18T23:29:40.196Z,90.90
2018-04-18T23:32:08.468Z,91.10
2018-04-18T23:34:36.743Z,91.10
2018-04-18T23:37:05.769Z,91.30
2018-04-18T23:39:34.061Z,91.30
2018-04-18T23:42:02.332Z,91.40
2018-04-18T23:44:30.632Z,91.40
2018-04-18T23:46:58.879Z,91.50
2018-04-18T23:49:27.161Z,91.60
2018-04-18T23:51:55.540Z,91.60
2018-04-18T23:54:23.939Z,91.60
2018-04-18T23:56:52.189Z,91.70
2018-04-18T23:59:20.475Z,91.80
